• Join FlightAware (Why Join?)
  • Login
  • US Flag 
02:23AM EDT


 

Airport Tracker/Info


-or-


 

Live Flight TrackerFlight Track Log ✈ JIA2328 ✈ 18-May-2013 ✈ KPHL - KALB

Flight Track Log - Related Links

Times and Time Zones

All times are in EDT time to prevent confusion due to time zone crossing. See the JIA2328 flight status page for this flight to view local times or setup timezone preferences in your user account.

Time Position Orientation Groundspeed Altitude Reporting Facility
EDT Latitude Longitude Course Direction KTS MPH feet Rate Location/Type
07:37AM 39.8833 -75.2000 37° Northeast 150 173 1,000  Level Philadelphia TRACON
07:37AM 39.8833 -75.1500 90° East 209 241 3,000 2,820 Climbing Philadelphia TRACON
07:39AM 39.8497 -75.0106 107° East 289 333 7,600 2,880 Climbing New York Center
07:40AM 39.7968 -74.7672 105° East  Level FlightAware Approximate
07:40AM 39.8322 -74.9175 104° East 289 333 10,500  Level New York Center
07:41AM 39.8152 -74.6682 37° Northeast  Level FlightAware Approximate
07:41AM 39.8111 -74.8056 104° East 305 351 13,200  Level New York Center
07:42AM 39.8893 -74.5941 37° Northeast  Level FlightAware Approximate
07:42AM 39.8067 -74.6892 93° East 310 357 15,700  Level New York Center
07:43AM 39.8756 -74.6225 37° Northeast 278 320 17,800 1,920 Climbing New York Center
07:44AM 39.9633 -74.5544 31° Northeast 289 333 19,600 1,560 Climbing New York Center
07:45AM 40.0236 -74.4953 37° Northeast 309 356 21,000 1,620 Climbing New York Center
07:46AM 40.1056 -74.4075 39° Northeast 327 376 22,900 1,500 Climbing New York Center
07:47AM 40.1850 -74.3300 37° Northeast 347 399 24,000 540 Climbing New York Center
07:48AM 40.2686 -74.2472 37° Northeast 359 413 24,000  Level New York Center
07:50AM 40.4753 -74.0769 32° Northeast 372 428 24,000  Level Boston Center
07:51AM 40.5617 -74.0272 24° Northeast 367 422 24,000  Level Boston Center
07:52AM 40.6583 -73.9611 27° Northeast 361 415 24,000  Level Boston Center
07:53AM 40.7467 -73.9003 28° Northeast 361 415 24,000  Level Boston Center
07:54AM 40.8311 -73.8225 35° Northeast 361 415 24,000 -300 Level Boston Center
07:55AM 40.9072 -73.7253 44° Northeast 361 415 23,400 -540 Descending Boston Center
07:56AM 40.9933 -73.6583 30° Northeast 366 421 23,000 -240 Descending Boston Center
07:57AM 41.0892 -73.6544 North 326 375 23,000 -300 Level Boston Center
07:58AM 41.1811 -73.6453 North 326 375 22,400 -840 Descending Boston Center
07:59AM 41.2708 -73.6306 North 331 381 21,400 -1,020 Descending Boston Center
08:00AM 41.3606 -73.6211 North 331 381 20,400 -1,080 Descending Boston Center
08:01AM 41.4481 -73.6089 North 320 368 19,300 -1,080 Descending Boston Center
08:02AM 41.5211 -73.5989 North 304 350 18,300 -900 Descending Boston Center
08:03AM 41.6006 -73.5894 North 304 350 17,600 -1,020 Descending Boston Center
08:04AM 41.6944 -73.5772 North 310 357 16,300 -1,320 Descending Boston Center
08:05AM 41.7861 -73.5678 North 305 351 15,000 -1,200 Descending Boston Center
08:06AM 41.8656 -73.5578 North 301 346 14,000 -1,080 Descending Boston Center
08:06AM 41.8906 -73.5556 North 298 343 13,700 -1,080 Descending Boston Center
08:07AM 41.9489 -73.5456 North 290 334 12,900 -1,020 Descending Boston Center
08:07AM 41.9697 -73.5458 359° North 288 331 12,700 -900 Descending Boston Center
08:08AM 42.0200 -73.5356 North 285 328 12,000 -1,020 Descending Boston Center
08:08AM 42.0492 -73.5333 North 283 326 11,700 -720 Descending Boston Center
08:09AM 42.1242 -73.5375 358° North 278 320 11,100 -300 Descending Boston Center
08:11AM 42.1967 -73.5750 339° North 276 318 11,100 -300 Level Boston Center
08:12AM 42.2672 -73.6072 341° North 277 319 10,600 -1,080 Descending Boston Center
08:12AM 42.3192 -73.6361 338° Northwest 269 310 9,100 -1,920 Descending Boston Center
08:13AM 42.4000 -73.6714 342° North 258 297 7,000 -1,920 Descending Boston Center
08:14AM 42.4664 -73.7039 340° North 264 304 5,300 -1,740 Descending Boston Center
08:15AM 42.5389 -73.7419 339° North 264 304 3,600 -1,740 Descending Boston Center